createdAt,value
2022-09-27T00:02:01.943Z,88.60
2022-09-27T00:04:35.872Z,88.80
2022-09-27T00:07:03.424Z,88.60
2022-09-27T00:09:30.875Z,88.70
2022-09-27T00:12:01.611Z,88.50
2022-09-27T00:14:29.407Z,88.60
2022-09-27T00:17:01.684Z,88.50
2022-09-27T00:19:29.465Z,88.10
2022-09-27T00:22:01.538Z,88.30
2022-09-27T00:24:28.968Z,88.90
2022-09-27T00:27:02.501Z,88.90
2022-09-27T00:29:30.010Z,89.20
2022-09-27T00:32:00.781Z,89.20
2022-09-27T00:34:28.244Z,89.20
2022-09-27T00:36:58.253Z,89.10
2022-09-27T00:39:29.938Z,89.30
2022-09-27T00:41:57.759Z,89.00
2022-09-27T00:44:33.734Z,88.80
2022-09-27T00:47:22.702Z,89.00
2022-09-27T00:50:05.342Z,88.50
2022-09-27T00:52:42.017Z,88.50
2022-09-27T00:55:22.667Z,88.40
2022-09-27T00:57:51.339Z,88.40
2022-09-27T01:00:20.530Z,88.40
2022-09-27T01:02:51.537Z,88.50
2022-09-27T01:05:25.120Z,88.40
2022-09-27T01:07:56.626Z,88.50
2022-09-27T01:10:26.618Z,88.70
2022-09-27T01:13:17.191Z,88.70
2022-09-27T01:16:31.703Z,87.90
2022-09-27T01:19:10.482Z,87.80
2022-09-27T01:21:43.751Z,88.20
2022-09-27T01:24:30.446Z,88.30
2022-09-27T01:27:09.622Z,88.30
2022-09-27T01:30:23.597Z,88.50
2022-09-27T01:33:31.284Z,88.20
2022-09-27T01:36:21.844Z,88.60
2022-09-27T01:39:16.381Z,88.40
2022-09-27T01:41:53.007Z,88.50
2022-09-27T01:44:56.148Z,88.40
2022-09-27T01:47:35.717Z,88.00
2022-09-27T01:50:08.639Z,88.10
2022-09-27T01:52:45.502Z,88.10
2022-09-27T01:55:16.075Z,88.10
2022-09-27T01:57:50.678Z,87.90
2022-09-27T02:00:19.389Z,87.90
2022-09-27T02:02:52.693Z,88.10
2022-09-27T02:05:31.051Z,88.00
2022-09-27T02:08:05.211Z,88.00
2022-09-27T02:10:45.842Z,88.00
2022-09-27T02:13:33.627Z,87.60
2022-09-27T02:16:15.069Z,87.50
2022-09-27T02:18:57.009Z,87.70
2022-09-27T02:21:33.213Z,87.40
2022-09-27T02:24:07.858Z,87.40
2022-09-27T02:26:46.879Z,87.40
2022-09-27T02:29:22.671Z,87.50
2022-09-27T02:31:50.206Z,87.80
2022-09-27T02:34:24.265Z,88.00
2022-09-27T02:36:53.542Z,87.70
2022-09-27T02:39:24.190Z,87.90
2022-09-27T02:41:52.126Z,87.80
2022-09-27T02:44:21.430Z,87.80
2022-09-27T02:47:08.176Z,88.00
2022-09-27T02:50:13.702Z,87.80
2022-09-27T02:53:11.587Z,88.00
2022-09-27T02:55:52.443Z,87.70
2022-09-27T02:58:43.906Z,87.80
2022-09-27T03:01:38.655Z,87.50
2022-09-27T03:04:25.970Z,87.60
2022-09-27T03:06:55.410Z,87.30
2022-09-27T03:09:25.636Z,87.60
2022-09-27T03:11:53.346Z,87.80
2022-09-27T03:14:24.096Z,87.90
2022-09-27T03:16:51.620Z,88.10
2022-09-27T03:19:19.053Z,88.20
2022-09-27T03:21:50.250Z,88.20
2022-09-27T03:24:17.624Z,88.10
2022-09-27T03:26:45.067Z,88.10
2022-09-27T03:29:12.810Z,88.20
2022-09-27T03:31:40.569Z,88.30
2022-09-27T03:34:11.392Z,88.40
2022-09-27T03:36:38.771Z,88.50
2022-09-27T03:39:06.652Z,88.40
2022-09-27T03:41:36.275Z,88.40
2022-09-27T03:44:04.043Z,88.40
2022-09-27T03:46:31.550Z,88.40
2022-09-27T03:49:01.432Z,88.30
2022-09-27T03:51:28.955Z,88.30
2022-09-27T03:53:58.890Z,88.40
2022-09-27T03:56:31.771Z,88.20
2022-09-27T03:58:59.134Z,88.10
2022-09-27T04:01:28.997Z,88.30
2022-09-27T04:03:56.382Z,88.40
2022-09-27T04:06:27.225Z,88.60
2022-09-27T04:08:57.033Z,88.40
2022-09-27T04:11:24.508Z,88.40
2022-09-27T04:13:51.937Z,88.30
2022-09-27T04:16:19.362Z,88.50
2022-09-27T04:18:49.479Z,88.50
2022-09-27T04:21:22.620Z,88.50
2022-09-27T04:23:56.414Z,88.60
2022-09-27T04:26:24.233Z,88.90
2022-09-27T04:28:54.787Z,88.90
2022-09-27T04:31:22.553Z,89.10
2022-09-27T04:33:53.970Z,89.10
2022-09-27T04:36:31.442Z,88.90
2022-09-27T04:39:01.563Z,88.80
2022-09-27T04:41:32.073Z,88.90
2022-09-27T04:44:02.260Z,88.80
2022-09-27T04:46:32.974Z,89.00
2022-09-27T04:49:03.653Z,89.00
2022-09-27T04:51:31.055Z,88.90
2022-09-27T04:53:58.756Z,89.00
2022-09-27T04:56:27.478Z,89.20
2022-09-27T04:58:55.101Z,89.30
2022-09-27T05:01:23.032Z,89.40
2022-09-27T05:03:50.474Z,89.40
2022-09-27T05:06:17.831Z,89.60
2022-09-27T05:08:45.749Z,90.40
2022-09-27T05:11:13.130Z,90.60
2022-09-27T05:13:40.769Z,90.70
2022-09-27T05:16:08.417Z,90.80
2022-09-27T05:18:35.833Z,90.80
2022-09-27T05:21:03.219Z,90.80
2022-09-27T05:23:30.545Z,90.60
2022-09-27T05:26:00.866Z,90.80
2022-09-27T05:28:28.213Z,90.80
2022-09-27T05:30:55.987Z,90.80
2022-09-27T05:33:23.415Z,90.80
2022-09-27T05:35:55.592Z,90.90
2022-09-27T05:38:26.115Z,90.80
2022-09-27T05:40:53.573Z,90.90
2022-09-27T05:43:24.994Z,91.00
2022-09-27T05:45:53.207Z,91.30
2022-09-27T05:48:21.608Z,91.80
2022-09-27T05:50:49.075Z,91.80
2022-09-27T05:53:16.484Z,92.20
2022-09-27T05:55:43.841Z,91.90
2022-09-27T05:58:13.862Z,91.80
2022-09-27T06:00:41.222Z,91.90
2022-09-27T06:03:11.161Z,91.90
2022-09-27T06:05:42.246Z,91.90
2022-09-27T06:08:11.645Z,91.70
2022-09-27T06:10:45.146Z,91.60
2022-09-27T06:13:15.470Z,91.50
2022-09-27T06:15:45.528Z,91.50
2022-09-27T06:18:17.364Z,91.30
2022-09-27T06:20:46.124Z,91.30
2022-09-27T06:23:18.966Z,91.80
2022-09-27T06:25:47.246Z,91.60
2022-09-27T06:28:15.498Z,91.70
2022-09-27T06:30:47.690Z,91.50
2022-09-27T06:33:18.072Z,91.40
2022-09-27T06:35:51.016Z,91.80
2022-09-27T06:38:21.233Z,91.90
2022-09-27T06:40:48.954Z,92.00
2022-09-27T06:43:22.615Z,92.00
2022-09-27T06:45:51.144Z,91.90
2022-09-27T06:48:19.140Z,91.80
2022-09-27T06:50:49.141Z,91.70
2022-09-27T06:53:19.377Z,91.70
2022-09-27T06:55:46.713Z,91.50
2022-09-27T06:58:32.828Z,91.40
2022-09-27T07:01:02.845Z,91.30
2022-09-27T07:03:40.132Z,91.40
2022-09-27T07:06:18.810Z,91.30
2022-09-27T07:08:51.500Z,91.40
2022-09-27T07:11:23.529Z,91.20
2022-09-27T07:13:51.944Z,91.20
2022-09-27T07:16:22.307Z,91.30
2022-09-27T07:18:50.765Z,91.20
2022-09-27T07:21:18.171Z,91.30
2022-09-27T07:23:46.618Z,91.20
2022-09-27T07:26:13.986Z,91.30
2022-09-27T07:28:46.051Z,91.40
2022-09-27T07:31:15.591Z,91.30
2022-09-27T07:33:47.592Z,91.40
2022-09-27T07:36:15.051Z,91.40
2022-09-27T07:38:42.703Z,91.70
2022-09-27T07:41:17.092Z,91.40
2022-09-27T07:43:47.030Z,91.40
2022-09-27T07:46:14.910Z,91.30
2022-09-27T07:48:42.497Z,91.50
2022-09-27T07:51:11.963Z,91.50
2022-09-27T07:53:40.747Z,91.50
2022-09-27T07:56:08.174Z,91.90
2022-09-27T07:58:35.639Z,91.50
2022-09-27T08:01:03.145Z,91.50
2022-09-27T08:03:36.489Z,91.20
2022-09-27T08:06:04.556Z,91.30
2022-09-27T08:08:34.036Z,91.40
2022-09-27T08:11:01.430Z,91.50
2022-09-27T08:13:31.279Z,91.60
2022-09-27T08:16:02.225Z,91.80
2022-09-27T08:18:29.599Z,91.90
2022-09-27T08:21:00.928Z,91.90
2022-09-27T08:23:28.699Z,91.70
2022-09-27T08:26:00.595Z,91.90
2022-09-27T08:28:31.609Z,92.00
2022-09-27T08:31:00.711Z,92.10
2022-09-27T08:33:32.365Z,92.40
2022-09-27T08:36:02.081Z,92.40
2022-09-27T08:38:29.624Z,92.00
2022-09-27T08:41:00.999Z,91.90
2022-09-27T08:43:57.193Z,91.80
2022-09-27T08:46:42.016Z,91.90
2022-09-27T08:49:28.357Z,92.00
2022-09-27T08:51:58.222Z,92.00
2022-09-27T08:54:31.741Z,92.30
2022-09-27T08:57:03.825Z,92.50
2022-09-27T09:00:01.274Z,92.40
2022-09-27T09:02:29.008Z,92.00
2022-09-27T09:05:08.462Z,92.30
2022-09-27T09:08:03.076Z,91.70
2022-09-27T09:11:23.035Z,91.90
2022-09-27T09:14:03.485Z,92.00
2022-09-27T09:16:51.493Z,92.30
2022-09-27T09:19:46.126Z,92.50
2022-09-27T09:22:28.891Z,92.70
2022-09-27T09:25:09.642Z,92.90
2022-09-27T09:27:52.191Z,93.00
2022-09-27T09:30:29.667Z,92.20
2022-09-27T09:33:19.111Z,92.60
2022-09-27T09:36:14.038Z,91.80
2022-09-27T09:38:52.593Z,91.50
2022-09-27T09:41:29.960Z,91.80
2022-09-27T09:44:08.534Z,91.60
2022-09-27T09:46:45.795Z,91.80
2022-09-27T09:49:44.364Z,91.80
2022-09-27T09:52:20.180Z,91.60
2022-09-27T09:54:57.576Z,92.30
2022-09-27T09:57:44.089Z,91.80
2022-09-27T10:00:20.900Z,91.40
2022-09-27T10:02:55.025Z,92.20
2022-09-27T10:05:24.925Z,92.50
2022-09-27T10:07:55.129Z,92.60
2022-09-27T10:10:23.065Z,92.40
2022-09-27T10:12:50.911Z,92.90
2022-09-27T10:15:21.402Z,92.60
2022-09-27T10:17:56.837Z,92.70
2022-09-27T10:20:38.941Z,91.50
2022-09-27T10:23:16.182Z,89.70
2022-09-27T10:25:50.436Z,87.40
2022-09-27T10:28:48.216Z,86.30
2022-09-27T10:31:20.945Z,86.50
2022-09-27T10:34:08.958Z,86.10
2022-09-27T10:36:36.607Z,84.80
2022-09-27T10:39:21.245Z,86.50
2022-09-27T10:41:48.705Z,85.30
2022-09-27T10:44:26.463Z,86.70
2022-09-27T10:46:58.685Z,84.90
2022-09-27T10:49:30.410Z,85.20
2022-09-27T10:52:04.080Z,84.00
2022-09-27T10:54:37.357Z,81.50
2022-09-27T10:57:16.495Z,80.90
2022-09-27T10:59:46.285Z,81.50
2022-09-27T11:02:34.448Z,81.70
2022-09-27T11:05:35.156Z,80.10
2022-09-27T11:08:26.075Z,79.70
2022-09-27T11:11:16.332Z,80.60
2022-09-27T11:14:00.816Z,81.70
2022-09-27T11:16:37.565Z,82.40
2022-09-27T11:19:15.521Z,83.90
2022-09-27T11:22:01.806Z,84.10
2022-09-27T11:25:09.079Z,85.10
2022-09-27T11:27:41.542Z,85.20
2022-09-27T11:30:17.995Z,87.60
2022-09-27T11:33:12.021Z,88.10
2022-09-27T11:36:00.369Z,89.80
2022-09-27T11:39:02.536Z,90.40
2022-09-27T11:41:44.554Z,90.80
2022-09-27T11:44:42.662Z,90.90
2022-09-27T11:47:15.755Z,90.50
2022-09-27T11:50:07.365Z,91.00
2022-09-27T11:52:59.863Z,90.70
2022-09-27T11:55:40.421Z,90.20
2022-09-27T11:58:16.530Z,91.10
2022-09-27T12:00:58.155Z,91.20
2022-09-27T12:03:47.373Z,91.10
2022-09-27T12:06:53.455Z,90.50
2022-09-27T12:09:33.098Z,90.20
2022-09-27T12:12:03.996Z,88.90
2022-09-27T12:14:41.350Z,90.10
2022-09-27T12:17:28.285Z,90.40
2022-09-27T12:20:05.561Z,89.10
2022-09-27T12:23:00.419Z,91.50
2022-09-27T12:25:35.999Z,90.80
2022-09-27T12:28:12.526Z,89.60
2022-09-27T12:30:46.467Z,89.10
2022-09-27T12:33:19.157Z,84.70
2022-09-27T12:35:56.730Z,80.70
2022-09-27T12:38:40.667Z,79.90
2022-09-27T12:41:12.032Z,79.30
2022-09-27T12:43:44.821Z,78.50
2022-09-27T12:46:34.934Z,78.20
2022-09-27T12:49:46.603Z,77.90
2022-09-27T12:52:25.537Z,76.20
2022-09-27T12:55:22.081Z,74.50
2022-09-27T12:58:10.972Z,73.20
2022-09-27T13:00:48.786Z,72.00
2022-09-27T13:03:44.864Z,72.90
2022-09-27T13:06:52.559Z,73.70
2022-09-27T13:09:50.084Z,72.30
2022-09-27T13:12:21.914Z,72.80
2022-09-27T13:15:05.028Z,68.50
2022-09-27T13:17:42.439Z,69.60
2022-09-27T13:20:30.810Z,71.80
2022-09-27T13:23:05.064Z,72.60
2022-09-27T13:25:51.625Z,71.40
2022-09-27T13:28:33.910Z,69.70
2022-09-27T13:31:16.025Z,71.10
2022-09-27T13:33:55.043Z,71.80
2022-09-27T13:36:29.895Z,72.00
2022-09-27T13:39:06.572Z,70.70
2022-09-27T13:41:39.629Z,72.00
2022-09-27T13:44:25.646Z,72.00
2022-09-27T13:47:03.392Z,73.50
2022-09-27T13:49:44.525Z,70.70
2022-09-27T13:52:36.377Z,71.90
2022-09-27T13:55:06.585Z,72.60
2022-09-27T13:57:48.755Z,73.10
2022-09-27T14:00:52.704Z,72.00
2022-09-27T14:03:38.395Z,71.90
2022-09-27T14:06:09.296Z,71.00
2022-09-27T14:08:46.675Z,69.30
2022-09-27T14:11:18.801Z,70.30
2022-09-27T14:13:51.642Z,69.60
2022-09-27T14:16:20.906Z,69.90
2022-09-27T14:19:00.612Z,71.50
2022-09-27T14:21:33.387Z,71.50
2022-09-27T14:24:22.154Z,72.30
2022-09-27T14:27:17.872Z,71.00
2022-09-27T14:29:47.309Z,71.40
2022-09-27T14:32:20.549Z,70.60
2022-09-27T14:35:39.222Z,71.70
2022-09-27T14:38:36.032Z,71.20
2022-09-27T14:41:02.916Z,69.90
2022-09-27T14:43:33.026Z,70.30
2022-09-27T14:46:08.138Z,70.90
2022-09-27T14:48:36.730Z,70.50
2022-09-27T14:51:14.446Z,70.70
2022-09-27T14:53:47.240Z,69.70
2022-09-27T14:56:27.658Z,70.10
2022-09-27T14:59:09.597Z,69.90
2022-09-27T15:01:39.923Z,70.60
2022-09-27T15:04:14.141Z,71.50
2022-09-27T15:06:47.279Z,71.60
2022-09-27T15:09:24.338Z,71.10
2022-09-27T15:12:00.849Z,70.70
2022-09-27T15:14:33.442Z,69.40
2022-09-27T15:17:05.945Z,69.90
2022-09-27T15:19:34.622Z,70.80
2022-09-27T15:22:36.594Z,69.20
2022-09-27T15:25:20.681Z,68.40
2022-09-27T15:27:58.424Z,69.50
2022-09-27T15:30:30.241Z,70.10
2022-09-27T15:32:58.389Z,70.70
2022-09-27T15:35:30.326Z,70.60
2022-09-27T15:38:33.538Z,70.80
2022-09-27T15:41:06.871Z,69.20
2022-09-27T15:43:48.712Z,70.40
2022-09-27T15:46:22.183Z,69.20
2022-09-27T15:49:18.050Z,69.90
2022-09-27T15:51:48.511Z,69.80
2022-09-27T15:54:19.871Z,71.20
2022-09-27T15:56:52.162Z,71.60
2022-09-27T15:59:36.007Z,72.20
2022-09-27T16:02:19.519Z,70.70
2022-09-27T16:04:47.014Z,71.30
2022-09-27T16:07:15.057Z,71.60
2022-09-27T16:09:43.800Z,72.20
2022-09-27T16:12:11.333Z,71.80
2022-09-27T16:14:38.738Z,72.80
2022-09-27T16:17:06.135Z,72.80
2022-09-27T16:19:33.513Z,72.50
2022-09-27T16:22:03.575Z,72.90
2022-09-27T16:24:32.163Z,73.70
2022-09-27T16:27:01.059Z,73.70
2022-09-27T16:29:28.901Z,73.90
2022-09-27T16:31:57.148Z,73.80
2022-09-27T16:34:24.576Z,74.10
2022-09-27T16:36:56.587Z,74.20
2022-09-27T16:39:23.981Z,74.50
2022-09-27T16:41:53.247Z,74.70
2022-09-27T16:44:23.532Z,74.90
2022-09-27T16:46:51.377Z,74.50
2022-09-27T16:49:37.321Z,74.40
2022-09-27T16:52:04.751Z,74.20
2022-09-27T16:54:32.271Z,73.90
2022-09-27T16:56:59.908Z,73.80
2022-09-27T16:59:27.826Z,73.70
2022-09-27T17:01:58.306Z,73.10
2022-09-27T17:04:27.674Z,73.10
2022-09-27T17:06:56.248Z,73.20
2022-09-27T17:09:24.037Z,73.10
2022-09-27T17:11:55.548Z,73.20
2022-09-27T17:14:23.439Z,73.00
2022-09-27T17:16:53.898Z,72.80
2022-09-27T17:19:22.624Z,72.00
2022-09-27T17:21:50.433Z,72.70
2022-09-27T17:24:18.217Z,72.60
2022-09-27T17:26:46.049Z,72.40
2022-09-27T17:29:14.236Z,72.10
2022-09-27T17:31:42.374Z,72.70
2022-09-27T17:34:12.952Z,73.00
2022-09-27T17:36:43.193Z,72.80
2022-09-27T17:39:16.410Z,72.50
2022-09-27T17:41:44.151Z,72.50
2022-09-27T17:44:17.353Z,72.60
2022-09-27T17:47:07.929Z,72.40
2022-09-27T17:49:56.923Z,72.10
2022-09-27T17:52:29.088Z,73.00
2022-09-27T17:54:58.753Z,72.70
2022-09-27T17:57:31.902Z,73.00
2022-09-27T17:59:59.190Z,73.10
2022-09-27T18:02:26.965Z,72.80
2022-09-27T18:04:54.445Z,73.20
2022-09-27T18:07:21.772Z,73.40
2022-09-27T18:09:50.658Z,73.20
2022-09-27T18:12:20.257Z,73.80
2022-09-27T18:14:52.482Z,73.90
2022-09-27T18:17:22.537Z,73.40
2022-09-27T18:19:53.924Z,73.20
2022-09-27T18:22:21.237Z,73.60
2022-09-27T18:24:51.167Z,73.60
2022-09-27T18:27:20.190Z,73.70
2022-09-27T18:29:50.019Z,73.00
2022-09-27T18:32:17.522Z,72.80
2022-09-27T18:34:45.000Z,73.00
2022-09-27T18:37:12.471Z,73.00
2022-09-27T18:39:40.506Z,72.70
2022-09-27T18:42:09.148Z,73.10
2022-09-27T18:44:36.682Z,72.90
2022-09-27T18:47:04.156Z,73.00
2022-09-27T18:49:34.069Z,73.20
2022-09-27T18:52:02.726Z,72.50
2022-09-27T18:54:30.488Z,73.10
2022-09-27T18:56:57.865Z,73.20
2022-09-27T18:59:25.327Z,73.40
2022-09-27T19:01:53.028Z,73.40
2022-09-27T19:04:25.872Z,73.60
2022-09-27T19:06:54.755Z,74.10
2022-09-27T19:09:26.762Z,74.30
2022-09-27T19:11:54.338Z,74.00
2022-09-27T19:14:22.804Z,74.40
2022-09-27T19:16:53.633Z,74.50
2022-09-27T19:19:21.148Z,74.60
2022-09-27T19:21:55.640Z,75.10
2022-09-27T19:24:36.964Z,75.60
2022-09-27T19:27:07.573Z,76.50
2022-09-27T19:29:40.470Z,78.00
2022-09-27T19:32:10.766Z,79.60
2022-09-27T19:34:39.070Z,80.50
2022-09-27T19:37:15.841Z,82.10
2022-09-27T19:39:43.356Z,84.00
2022-09-27T19:42:11.259Z,85.30
2022-09-27T19:44:39.113Z,86.50
2022-09-27T19:47:06.531Z,87.50
2022-09-27T19:49:37.258Z,88.30
2022-09-27T19:52:04.889Z,88.20
2022-09-27T19:54:41.645Z,88.00
2022-09-27T19:57:09.130Z,88.40
2022-09-27T19:59:42.935Z,88.20
2022-09-27T20:02:14.036Z,87.50
2022-09-27T20:04:46.642Z,87.50
2022-09-27T20:07:16.517Z,87.40
2022-09-27T20:09:46.971Z,87.20
2022-09-27T20:12:16.800Z,86.80
2022-09-27T20:14:45.110Z,86.40
2022-09-27T20:17:13.565Z,86.20
2022-09-27T20:19:40.930Z,86.50
2022-09-27T20:22:08.475Z,86.60
2022-09-27T20:24:35.982Z,86.80
2022-09-27T20:27:05.887Z,86.70
2022-09-27T20:29:34.296Z,87.00
2022-09-27T20:32:26.798Z,87.40
2022-09-27T20:34:53.127Z,87.50
2022-09-27T20:37:23.856Z,87.40
2022-09-27T20:39:52.618Z,87.20
2022-09-27T20:42:20.178Z,87.30
2022-09-27T20:44:51.876Z,87.20
2022-09-27T20:47:25.083Z,87.10
2022-09-27T20:49:54.721Z,87.20
2022-09-27T20:52:30.047Z,87.30
2022-09-27T20:54:57.498Z,87.70
2022-09-27T20:57:56.023Z,87.90
2022-09-27T21:00:20.825Z,88.00
2022-09-27T21:02:48.429Z,88.00
2022-09-27T21:05:20.224Z,88.20
2022-09-27T21:07:47.645Z,88.20
2022-09-27T21:10:15.074Z,88.00
2022-09-27T21:12:48.465Z,88.30
2022-09-27T21:15:15.891Z,88.40
2022-09-27T21:17:44.540Z,88.70
2022-09-27T21:20:12.492Z,88.80
2022-09-27T21:22:39.961Z,89.00
2022-09-27T21:25:07.763Z,89.40
2022-09-27T21:27:35.449Z,89.60
2022-09-27T21:30:08.265Z,89.40
2022-09-27T21:32:35.642Z,89.70
2022-09-27T21:35:12.114Z,89.90
2022-09-27T21:37:39.466Z,90.00
2022-09-27T21:40:10.877Z,90.00
2022-09-27T21:42:38.452Z,90.10
2022-09-27T21:45:11.821Z,90.10
2022-09-27T21:47:39.193Z,90.00
2022-09-27T21:50:07.069Z,90.10
2022-09-27T21:52:34.420Z,90.10
2022-09-27T21:55:01.873Z,90.20
2022-09-27T21:57:39.040Z,90.20
2022-09-27T22:00:07.804Z,90.00
2022-09-27T22:02:38.855Z,90.20
2022-09-27T22:05:09.205Z,90.20
2022-09-27T22:07:36.778Z,90.20
2022-09-27T22:10:04.485Z,90.20
2022-09-27T22:12:31.803Z,90.20
2022-09-27T22:14:59.320Z,90.20
2022-09-27T22:17:26.890Z,90.30
2022-09-27T22:19:56.639Z,90.30
2022-09-27T22:22:24.039Z,90.10
2022-09-27T22:24:52.057Z,90.10
2022-09-27T22:27:19.605Z,90.00
2022-09-27T22:29:46.968Z,90.00
2022-09-27T22:32:14.285Z,90.00
2022-09-27T22:34:41.753Z,90.10
2022-09-27T22:37:16.665Z,90.00
2022-09-27T22:39:44.155Z,90.00
2022-09-27T22:42:14.162Z,90.10
2022-09-27T22:44:41.604Z,90.20
2022-09-27T22:47:10.190Z,90.20
2022-09-27T22:49:38.214Z,90.20
2022-09-27T22:52:05.809Z,90.10
2022-09-27T22:54:33.323Z,90.10
2022-09-27T22:57:03.812Z,90.00
2022-09-27T22:59:32.518Z,90.00
2022-09-27T23:02:00.090Z,90.00
2022-09-27T23:04:36.777Z,90.00
2022-09-27T23:07:04.136Z,90.00
2022-09-27T23:09:35.736Z,90.00
2022-09-27T23:12:03.123Z,89.80
2022-09-27T23:14:31.872Z,89.90
2022-09-27T23:16:59.696Z,90.00
2022-09-27T23:19:27.110Z,90.00
2022-09-27T23:22:00.420Z,90.00
2022-09-27T23:24:27.975Z,90.00
2022-09-27T23:27:14.074Z,90.10
2022-09-27T23:29:41.710Z,90.10
2022-09-27T23:32:12.834Z,90.10
2022-09-27T23:34:42.551Z,90.00
2022-09-27T23:37:10.319Z,90.20
2022-09-27T23:39:39.253Z,90.20
2022-09-27T23:42:08.660Z,90.20
2022-09-27T23:44:36.187Z,90.20
2022-09-27T23:47:13.552Z,90.20
2022-09-27T23:49:44.647Z,89.60
2022-09-27T23:52:11.970Z,89.90
2022-09-27T23:54:39.326Z,89.90
2022-09-27T23:57:08.972Z,89.70
2022-09-27T23:59:38.604Z,89.90
